createdAt,value
2018-09-20T00:02:24.858Z,10.27
2018-09-20T00:04:53.206Z,11.27
2018-09-20T00:07:21.518Z,9.83
2018-09-20T00:09:49.885Z,10.10
2018-09-20T00:12:18.183Z,9.30
2018-09-20T00:14:46.674Z,9.80
2018-09-20T00:17:15.060Z,9.83
2018-09-20T00:19:43.398Z,10.00
2018-09-20T00:22:11.870Z,9.63
2018-09-20T00:24:40.205Z,10.27
2018-09-20T00:27:08.583Z,9.67
2018-09-20T00:29:37.145Z,9.20
2018-09-20T00:32:05.825Z,9.33
2018-09-20T00:34:34.225Z,9.40
2018-09-20T00:37:02.638Z,8.73
2018-09-20T00:39:31.022Z,9.97
2018-09-20T00:41:59.389Z,9.70
2018-09-20T00:44:27.724Z,9.37
2018-09-20T00:46:56.066Z,9.43
2018-09-20T00:49:24.394Z,10.43
2018-09-20T00:51:52.758Z,10.00
2018-09-20T00:54:21.132Z,10.07
2018-09-20T00:56:49.496Z,11.20
2018-09-20T00:59:17.834Z,10.87
2018-09-20T01:01:46.179Z,10.40
2018-09-20T01:04:14.500Z,10.40
2018-09-20T01:06:43.035Z,10.50
2018-09-20T01:09:12.057Z,10.20
2018-09-20T01:11:41.204Z,9.50
2018-09-20T01:14:09.872Z,10.80
2018-09-20T01:16:38.263Z,10.27
2018-09-20T01:19:06.699Z,10.30
2018-09-20T01:21:35.079Z,10.83
2018-09-20T01:24:03.408Z,9.27
2018-09-20T01:26:31.721Z,10.20
2018-09-20T01:29:00.113Z,9.60
2018-09-20T01:31:28.525Z,9.90
2018-09-20T01:33:56.834Z,9.50
2018-09-20T01:36:25.246Z,8.93
2018-09-20T01:38:53.562Z,9.70
2018-09-20T01:41:21.903Z,11.10
2018-09-20T01:43:50.254Z,9.53
2018-09-20T01:46:18.666Z,10.30
2018-09-20T01:48:47.011Z,10.87
2018-09-20T01:51:15.301Z,9.90
2018-09-20T01:53:43.650Z,10.23
2018-09-20T01:56:15.356Z,11.17
2018-09-20T01:58:44.860Z,11.03
2018-09-20T02:01:13.183Z,11.57
2018-09-20T02:03:41.482Z,12.07
2018-09-20T02:06:09.868Z,11.60
2018-09-20T02:08:38.194Z,12.30
2018-09-20T02:11:06.538Z,12.50
2018-09-20T02:13:34.892Z,11.37
2018-09-20T02:16:03.388Z,12.73
2018-09-20T02:18:31.757Z,11.57
2018-09-20T02:21:00.048Z,11.33
2018-09-20T02:23:28.351Z,10.47
2018-09-20T02:25:56.724Z,11.00
2018-09-20T02:28:25.114Z,11.30
2018-09-20T02:30:53.507Z,11.20
2018-09-20T02:33:21.787Z,10.57
2018-09-20T02:35:50.109Z,10.40
2018-09-20T02:38:18.436Z,10.37
2018-09-20T02:40:46.768Z,10.67
2018-09-20T02:43:15.113Z,10.73
2018-09-20T02:45:43.399Z,10.83
2018-09-20T02:48:11.743Z,9.43
2018-09-20T02:50:40.048Z,11.20
2018-09-20T02:53:08.381Z,10.43
2018-09-20T02:55:36.739Z,10.67
2018-09-20T02:58:05.078Z,9.63
2018-09-20T03:00:33.428Z,8.83
2018-09-20T03:03:01.754Z,9.30
2018-09-20T03:05:30.089Z,9.47
2018-09-20T03:07:58.505Z,8.97
2018-09-20T03:10:26.857Z,9.60
2018-09-20T03:12:55.194Z,9.30
2018-09-20T03:15:23.585Z,9.67
2018-09-20T03:17:51.869Z,9.80
2018-09-20T03:20:20.220Z,9.63
2018-09-20T03:22:48.602Z,8.93
2018-09-20T03:25:16.980Z,10.00
2018-09-20T03:27:45.366Z,9.30
2018-09-20T03:30:13.759Z,9.20
2018-09-20T03:32:42.128Z,9.00
2018-09-20T03:35:10.738Z,9.23
2018-09-20T03:37:39.122Z,9.07
2018-09-20T03:40:07.489Z,10.43
2018-09-20T03:42:35.980Z,9.67
2018-09-20T03:45:04.363Z,9.00
2018-09-20T03:47:32.747Z,9.90
2018-09-20T03:50:01.076Z,9.27
2018-09-20T03:52:29.413Z,9.20
2018-09-20T03:54:57.883Z,8.57
2018-09-20T03:57:26.293Z,9.87
2018-09-20T03:59:54.607Z,9.27
2018-09-20T04:02:22.990Z,9.50
2018-09-20T04:04:51.332Z,10.50
2018-09-20T04:07:19.705Z,11.43
2018-09-20T04:09:48.108Z,13.13
2018-09-20T04:12:16.424Z,12.77
2018-09-20T04:14:44.733Z,11.10
2018-09-20T04:17:13.030Z,10.43
2018-09-20T04:19:41.329Z,11.77
2018-09-20T04:22:09.711Z,11.93
2018-09-20T04:24:38.094Z,11.33
2018-09-20T04:27:06.456Z,10.70
2018-09-20T04:32:43.328Z,10.07
2018-09-20T04:35:11.747Z,9.63
2018-09-20T04:37:40.127Z,9.43
2018-09-20T04:40:08.657Z,9.97
2018-09-20T04:42:37.034Z,10.33
2018-09-20T04:45:06.037Z,11.60
2018-09-20T04:47:34.555Z,11.10
2018-09-20T04:50:03.002Z,10.10
2018-09-20T04:52:31.375Z,11.60
2018-09-20T04:54:59.734Z,12.07
2018-09-20T04:57:28.118Z,11.60
2018-09-20T04:59:56.580Z,11.67
2018-09-20T05:02:24.943Z,12.40
2018-09-20T05:04:53.406Z,11.67
2018-09-20T05:07:21.801Z,10.50
2018-09-20T05:09:50.230Z,10.30
2018-09-20T05:12:18.724Z,11.07
2018-09-20T05:14:47.485Z,9.57
2018-09-20T05:17:15.912Z,9.50
2018-09-20T05:19:44.279Z,10.40
2018-09-20T05:22:12.656Z,10.87
2018-09-20T05:24:41.007Z,11.50
2018-09-20T05:27:09.355Z,9.60
2018-09-20T05:29:37.729Z,9.07
2018-09-20T05:32:06.094Z,10.00
2018-09-20T05:34:34.459Z,10.27
2018-09-20T05:37:02.848Z,10.00
2018-09-20T05:39:31.164Z,10.20
2018-09-20T05:41:59.718Z,10.00
2018-09-20T05:44:28.097Z,10.50
2018-09-20T05:46:56.461Z,10.03
2018-09-20T05:49:24.889Z,9.13
2018-09-20T05:51:53.309Z,9.70
2018-09-20T05:54:21.645Z,10.20
2018-09-20T05:56:49.961Z,10.30
2018-09-20T05:59:18.469Z,10.60
2018-09-20T06:01:46.833Z,8.53
2018-09-20T06:04:15.206Z,9.50
2018-09-20T06:06:43.615Z,8.70
2018-09-20T06:09:11.989Z,8.53
2018-09-20T06:11:40.355Z,8.40
2018-09-20T06:14:08.769Z,8.40
2018-09-20T06:16:37.220Z,7.37
2018-09-20T06:19:05.581Z,8.07
2018-09-20T06:21:33.913Z,7.50
2018-09-20T06:24:02.286Z,6.77
2018-09-20T06:26:30.717Z,6.43
2018-09-20T06:28:59.058Z,7.10
2018-09-20T06:31:27.858Z,6.90
2018-09-20T06:33:56.186Z,7.33
2018-09-20T06:36:24.573Z,6.90
2018-09-20T06:38:52.917Z,7.90
2018-09-20T06:41:21.266Z,8.70
2018-09-20T06:43:49.623Z,7.40
2018-09-20T06:46:17.961Z,7.23
2018-09-20T06:48:46.411Z,7.03
2018-09-20T06:51:14.746Z,7.37
2018-09-20T06:53:43.075Z,7.73
2018-09-20T06:56:11.490Z,8.10
2018-09-20T06:58:39.841Z,7.40
2018-09-20T07:01:08.301Z,6.80
2018-09-20T07:03:36.880Z,7.50
2018-09-20T07:06:05.211Z,7.80
2018-09-20T07:08:33.757Z,8.40
2018-09-20T07:11:02.108Z,7.90
2018-09-20T07:13:30.484Z,8.00
2018-09-20T07:15:58.810Z,7.50
2018-09-20T07:18:27.391Z,8.17
2018-09-20T07:20:55.832Z,7.23
2018-09-20T07:23:24.211Z,6.20
2018-09-20T07:25:52.678Z,7.00
2018-09-20T07:28:21.010Z,7.37
2018-09-20T07:30:49.384Z,6.70
2018-09-20T07:33:17.895Z,7.10
2018-09-20T07:35:46.213Z,7.40
2018-09-20T07:38:14.554Z,7.03
2018-09-20T07:40:43.025Z,6.70
2018-09-20T07:43:11.694Z,7.00
2018-09-20T07:45:40.063Z,7.13
2018-09-20T07:48:08.413Z,5.50
2018-09-20T07:50:36.761Z,5.97
2018-09-20T07:53:05.112Z,7.53
2018-09-20T07:55:33.547Z,5.70
2018-09-20T07:58:02.032Z,5.37
2018-09-20T08:00:30.956Z,5.00
2018-09-20T08:02:59.537Z,5.30
2018-09-20T08:05:31.309Z,5.67
2018-09-20T08:07:59.739Z,5.40
2018-09-20T08:10:28.216Z,5.90
2018-09-20T08:12:56.621Z,4.63
2018-09-20T08:15:25.024Z,4.53
2018-09-20T08:17:53.413Z,6.27
2018-09-20T08:20:21.741Z,6.27
2018-09-20T08:22:50.188Z,5.00
2018-09-20T08:25:18.591Z,5.37
2018-09-20T08:27:46.932Z,5.80
2018-09-20T08:30:15.494Z,6.33
2018-09-20T08:32:43.891Z,5.40
2018-09-20T08:35:12.347Z,4.57
2018-09-20T08:37:40.824Z,5.33
2018-09-20T08:40:09.162Z,4.60
2018-09-20T08:42:37.602Z,5.40
2018-09-20T08:45:06.263Z,5.20
2018-09-20T08:47:34.631Z,5.03
2018-09-20T08:50:03.003Z,4.80
2018-09-20T08:52:31.389Z,4.70
2018-09-20T08:54:59.942Z,4.63
2018-09-20T08:57:28.326Z,5.20
2018-09-20T08:59:56.686Z,4.30
2018-09-20T09:02:25.068Z,4.97
2018-09-20T09:04:53.426Z,6.07
2018-09-20T09:07:21.774Z,4.47
2018-09-20T09:09:50.177Z,4.77
2018-09-20T09:12:18.636Z,5.03
2018-09-20T09:14:47.395Z,4.30
2018-09-20T09:17:15.777Z,4.87
2018-09-20T09:19:44.200Z,4.50
2018-09-20T09:22:12.546Z,4.70
2018-09-20T09:24:40.926Z,4.60
2018-09-20T09:27:09.373Z,4.77
2018-09-20T09:29:37.747Z,4.10
2018-09-20T09:32:06.138Z,4.60
2018-09-20T09:34:34.515Z,5.07
2018-09-20T09:37:03.042Z,4.17
2018-09-20T09:39:31.390Z,5.53
2018-09-20T09:41:59.751Z,4.63
2018-09-20T09:44:28.154Z,4.37
2018-09-20T09:46:56.457Z,4.70
2018-09-20T09:49:24.775Z,4.70
2018-09-20T09:51:53.187Z,4.90
2018-09-20T09:54:21.640Z,4.80
2018-09-20T09:56:50.001Z,4.40
2018-09-20T09:59:18.371Z,5.30
2018-09-20T10:01:46.703Z,4.90
2018-09-20T10:04:15.077Z,3.90
2018-09-20T10:06:43.555Z,5.13
2018-09-20T10:09:12.486Z,4.70
2018-09-20T10:11:40.836Z,4.33
2018-09-20T10:14:09.457Z,4.27
2018-09-20T10:16:37.869Z,4.90
2018-09-20T10:19:06.220Z,4.57
2018-09-20T10:21:34.585Z,4.10
2018-09-20T10:24:02.938Z,4.73
2018-09-20T10:26:31.340Z,4.03
2018-09-20T10:28:59.877Z,4.57
2018-09-20T10:31:28.293Z,3.87
2018-09-20T10:33:56.631Z,4.77
2018-09-20T10:36:24.985Z,4.23
2018-09-20T10:38:53.362Z,4.03
2018-09-20T10:41:21.718Z,4.83
2018-09-20T10:43:50.076Z,4.07
2018-09-20T10:46:18.408Z,4.03
2018-09-20T10:48:48.557Z,4.80
2018-09-20T10:51:17.218Z,4.40
2018-09-20T10:53:45.752Z,4.30
2018-09-20T10:56:14.097Z,4.10
2018-09-20T10:58:42.490Z,4.20
2018-09-20T11:01:10.906Z,3.70
2018-09-20T11:03:39.233Z,3.60
2018-09-20T11:06:07.674Z,4.33
2018-09-20T11:08:35.986Z,3.77
2018-09-20T11:11:04.435Z,4.20
2018-09-20T11:13:32.733Z,3.83
2018-09-20T11:16:01.110Z,3.80
2018-09-20T11:18:29.493Z,3.80
2018-09-20T11:20:57.914Z,4.70
2018-09-20T11:23:26.288Z,4.00
2018-09-20T11:25:55.128Z,4.67
2018-09-20T11:28:23.419Z,3.70
2018-09-20T11:30:51.860Z,4.10
2018-09-20T11:33:20.310Z,4.57
2018-09-20T11:35:48.753Z,4.17
2018-09-20T11:38:17.277Z,3.83
2018-09-20T11:40:45.692Z,4.17
2018-09-20T11:43:14.095Z,4.07
2018-09-20T11:45:42.820Z,4.30
2018-09-20T11:48:11.261Z,4.00
2018-09-20T11:50:39.675Z,3.67
2018-09-20T11:53:08.052Z,4.37
2018-09-20T11:55:36.525Z,5.00
2018-09-20T11:58:07.894Z,4.37
2018-09-20T12:00:36.494Z,5.10
2018-09-20T12:03:05.232Z,4.40
2018-09-20T12:05:33.609Z,3.93
2018-09-20T12:08:02.098Z,4.40
2018-09-20T12:10:30.452Z,4.17
2018-09-20T12:12:59.452Z,4.43
2018-09-20T12:15:27.864Z,4.60
2018-09-20T12:17:56.190Z,4.00
2018-09-20T12:20:24.707Z,3.70
2018-09-20T12:22:53.045Z,5.00
2018-09-20T12:25:21.484Z,4.70
2018-09-20T12:27:49.877Z,4.67
2018-09-20T12:30:18.319Z,5.30
2018-09-20T12:32:46.785Z,4.10
2018-09-20T12:35:15.163Z,4.60
2018-09-20T12:37:43.920Z,4.20
2018-09-20T12:40:12.309Z,3.97
2018-09-20T12:42:40.751Z,4.33
2018-09-20T12:45:09.165Z,4.20
2018-09-20T12:47:37.515Z,4.90
2018-09-20T12:50:06.453Z,4.80
2018-09-20T12:52:34.829Z,4.10
2018-09-20T12:55:03.193Z,4.03
2018-09-20T12:57:31.552Z,4.10
2018-09-20T12:59:59.889Z,4.30
2018-09-20T13:02:28.282Z,4.27
2018-09-20T13:04:56.654Z,4.63
2018-09-20T13:07:25.321Z,4.53
2018-09-20T13:09:53.744Z,3.87
2018-09-20T13:12:22.072Z,5.00
2018-09-20T13:14:50.413Z,4.50
2018-09-20T13:17:18.761Z,4.00
2018-09-20T13:19:47.269Z,4.20
2018-09-20T13:22:15.617Z,3.90
2018-09-20T13:24:44.068Z,3.80
2018-09-20T13:27:12.668Z,4.27
2018-09-20T13:29:41.022Z,4.40
2018-09-20T13:32:09.412Z,4.17
2018-09-20T13:34:37.761Z,4.00
2018-09-20T13:37:06.234Z,4.10
2018-09-20T13:39:34.532Z,4.20
2018-09-20T13:42:02.912Z,4.57
2018-09-20T13:44:31.288Z,3.37
2018-09-20T13:46:59.793Z,4.13
2018-09-20T13:49:28.489Z,3.83
2018-09-20T13:51:56.900Z,3.80
2018-09-20T13:54:25.389Z,4.53
2018-09-20T13:56:53.785Z,4.03
2018-09-20T13:59:22.172Z,4.40
2018-09-20T14:01:50.525Z,3.73
2018-09-20T14:04:18.915Z,3.50
2018-09-20T14:06:47.285Z,4.30
2018-09-20T14:09:15.710Z,4.30
2018-09-20T14:11:44.078Z,3.97
2018-09-20T14:14:12.556Z,4.40
2018-09-20T14:16:40.952Z,4.73
2018-09-20T14:19:09.322Z,4.10
2018-09-20T14:21:37.701Z,4.03
2018-09-20T14:24:06.180Z,3.90
2018-09-20T14:26:34.579Z,4.03
2018-09-20T14:29:02.947Z,4.10
2018-09-20T14:31:31.365Z,4.13
2018-09-20T14:33:59.709Z,4.57
2018-09-20T14:36:28.168Z,4.10
2018-09-20T14:38:56.566Z,3.70
2018-09-20T14:41:25.009Z,4.27
2018-09-20T14:43:53.372Z,4.23
2018-09-20T14:46:21.749Z,4.10
2018-09-20T14:48:50.157Z,3.93
2018-09-20T14:51:18.576Z,4.20
2018-09-20T14:53:47.263Z,4.30
2018-09-20T14:56:15.730Z,3.97
2018-09-20T14:58:44.141Z,4.87
2018-09-20T15:01:12.608Z,4.17
2018-09-20T15:03:40.985Z,3.23
2018-09-20T15:06:09.391Z,3.80
2018-09-20T15:08:37.786Z,4.40
2018-09-20T15:11:06.303Z,3.90
2018-09-20T15:13:34.688Z,3.73
2018-09-20T15:16:03.165Z,3.93
2018-09-20T15:18:31.561Z,4.50
2018-09-20T15:20:59.950Z,4.73
2018-09-20T15:23:28.388Z,3.80
2018-09-20T15:25:56.756Z,3.63
2018-09-20T15:28:25.151Z,3.77
2018-09-20T15:30:53.571Z,4.23
2018-09-20T15:33:21.966Z,3.43
2018-09-20T15:35:50.350Z,4.17
2018-09-20T15:38:18.738Z,4.17
2018-09-20T15:40:47.122Z,3.83
2018-09-20T15:43:15.508Z,4.07
2018-09-20T15:45:43.897Z,4.20
2018-09-20T15:48:12.331Z,4.13
2018-09-20T15:50:40.942Z,3.83
2018-09-20T15:53:09.904Z,3.80
2018-09-20T15:55:38.288Z,3.70
2018-09-20T15:58:06.716Z,3.70
2018-09-20T16:00:35.072Z,4.57
2018-09-20T16:03:03.519Z,3.63
2018-09-20T16:05:31.889Z,4.40
2018-09-20T16:08:00.312Z,4.13
2018-09-20T16:10:28.813Z,3.97
2018-09-20T16:12:57.336Z,3.80
2018-09-20T16:15:25.764Z,4.43
2018-09-20T16:17:54.294Z,4.50
2018-09-20T16:20:22.767Z,4.33
2018-09-20T16:22:51.220Z,3.70
2018-09-20T16:25:19.648Z,4.37
2018-09-20T16:27:48.263Z,3.83
2018-09-20T16:30:31.672Z,3.83
2018-09-20T16:35:23.584Z,4.70
2018-09-20T16:37:59.826Z,4.67
2018-09-20T16:40:31.524Z,4.23
2018-09-20T16:42:59.930Z,4.07
2018-09-20T16:45:28.348Z,4.80
2018-09-20T16:47:56.702Z,4.03
2018-09-20T16:50:25.106Z,4.80
2018-09-20T16:52:53.527Z,4.63
2018-09-20T16:55:21.906Z,4.70
2018-09-20T16:57:50.327Z,4.33
2018-09-20T17:00:18.809Z,4.10
2018-09-20T17:02:47.246Z,4.07
2018-09-20T17:05:15.798Z,4.33
2018-09-20T17:07:44.161Z,4.10
2018-09-20T17:10:12.581Z,4.17
2018-09-20T17:12:41.016Z,4.40
2018-09-20T17:15:09.677Z,4.10
2018-09-20T17:17:37.926Z,3.93
2018-09-20T17:20:06.448Z,3.90
2018-09-20T17:22:34.816Z,4.20
2018-09-20T17:25:03.209Z,4.27
2018-09-20T17:27:31.611Z,4.57
2018-09-20T17:29:59.997Z,4.40
2018-09-20T17:32:28.426Z,5.00
2018-09-20T17:34:57.109Z,4.30
2018-09-20T17:37:26.520Z,4.60
2018-09-20T17:39:56.013Z,4.07
2018-09-20T17:42:25.823Z,5.17
2018-09-20T17:44:54.274Z,4.77
2018-09-20T17:47:22.749Z,4.70
2018-09-20T17:49:51.122Z,4.67
2018-09-20T17:52:20.050Z,4.03
2018-09-20T17:54:49.067Z,5.17
2018-09-20T17:57:18.137Z,4.47
2018-09-20T17:59:46.549Z,5.40
2018-09-20T18:02:15.074Z,4.97
2018-09-20T18:04:43.488Z,4.80
2018-09-20T18:07:11.977Z,4.80
2018-09-20T18:09:40.523Z,4.37
2018-09-20T18:12:09.004Z,4.30
2018-09-20T18:14:37.430Z,4.70
2018-09-20T18:17:06.651Z,4.93
2018-09-20T18:19:35.118Z,4.33
2018-09-20T18:22:03.616Z,4.57
2018-09-20T18:24:32.047Z,5.63
2018-09-20T18:27:00.608Z,4.63
2018-09-20T18:29:29.213Z,5.30
2018-09-20T18:31:57.633Z,4.63
2018-09-20T18:34:26.126Z,5.10
2018-09-20T18:36:54.608Z,4.47
2018-09-20T18:39:23.115Z,5.00
2018-09-20T18:41:51.692Z,5.10
2018-09-20T18:44:20.096Z,5.80
2018-09-20T18:46:48.537Z,4.87
2018-09-20T18:49:16.923Z,4.80
2018-09-20T18:51:45.341Z,4.97
2018-09-20T18:54:13.750Z,5.80
2018-09-20T18:56:47.195Z,4.60
2018-09-20T18:59:15.668Z,5.13
2018-09-20T19:01:44.085Z,5.20
2018-09-20T19:04:12.594Z,4.17
2018-09-20T19:06:41.057Z,4.70
2018-09-20T19:09:09.754Z,5.47
2018-09-20T19:11:38.482Z,4.47
2018-09-20T19:14:07.099Z,5.83
2018-09-20T19:16:35.550Z,5.20
2018-09-20T19:19:03.970Z,5.20
2018-09-20T19:21:32.418Z,4.67
2018-09-20T19:24:00.842Z,4.97
2018-09-20T19:26:29.628Z,6.27
2018-09-20T19:28:58.021Z,4.03
2018-09-20T19:31:26.414Z,5.00
2018-09-20T19:33:54.920Z,4.90
2018-09-20T19:36:23.526Z,5.07
2018-09-20T19:38:51.998Z,4.67
2018-09-20T19:41:20.382Z,5.37
2018-09-20T19:43:51.421Z,5.27
2018-09-20T19:46:19.829Z,5.10
2018-09-20T19:48:49.409Z,5.70
2018-09-20T19:51:17.830Z,4.50
2018-09-20T19:53:46.814Z,4.80
2018-09-20T19:56:18.350Z,5.40
2018-09-20T19:58:47.440Z,5.03
2018-09-20T20:01:16.095Z,5.93
2018-09-20T20:03:44.587Z,5.50
2018-09-20T20:06:13.065Z,5.90
2018-09-20T20:08:41.586Z,4.73
2018-09-20T20:11:10.038Z,5.30
2018-09-20T20:13:38.537Z,5.30
2018-09-20T20:16:06.971Z,4.47
2018-09-20T20:18:35.409Z,4.83
2018-09-20T20:21:03.865Z,4.93
2018-09-20T20:23:32.315Z,5.33
2018-09-20T20:26:01.041Z,5.30
2018-09-20T20:28:29.552Z,5.90
2018-09-20T20:30:57.966Z,5.90
2018-09-20T20:33:26.687Z,5.73
2018-09-20T20:35:55.122Z,5.73
2018-09-20T20:38:23.540Z,6.03
2018-09-20T20:40:51.918Z,5.40
2018-09-20T20:43:20.380Z,5.80
2018-09-20T20:45:48.760Z,5.97
2018-09-20T20:48:17.151Z,5.30
2018-09-20T20:50:45.568Z,5.97
2018-09-20T20:53:14.006Z,6.53
2018-09-20T20:55:42.449Z,5.90
2018-09-20T20:58:10.973Z,5.93
2018-09-20T21:00:39.434Z,5.87
2018-09-20T21:03:08.155Z,6.37
2018-09-20T21:05:36.722Z,5.90
2018-09-20T21:08:05.254Z,5.87
2018-09-20T21:10:33.650Z,6.80
2018-09-20T21:13:02.168Z,5.80
2018-09-20T21:15:31.988Z,6.20
2018-09-20T21:18:00.365Z,6.20
2018-09-20T21:20:28.912Z,6.00
2018-09-20T21:22:57.317Z,7.30
2018-09-20T21:25:25.719Z,5.90
2018-09-20T21:27:54.081Z,6.50
2018-09-20T21:30:22.498Z,5.77
2018-09-20T21:32:50.938Z,5.87
2018-09-20T21:35:19.347Z,6.47
2018-09-20T21:37:47.888Z,5.80
2018-09-20T21:40:16.328Z,7.00
2018-09-20T21:42:44.660Z,6.30
2018-09-20T21:45:13.212Z,6.67
2018-09-20T21:47:41.553Z,7.00
2018-09-20T21:50:09.946Z,5.63
2018-09-20T21:52:38.371Z,5.87
2018-09-20T21:55:06.771Z,6.70
2018-09-20T21:57:35.166Z,8.30
2018-09-20T22:00:04.233Z,6.53
2018-09-20T22:02:38.096Z,6.43
2018-09-20T22:05:06.881Z,7.17
2018-09-20T22:07:35.300Z,7.33
2018-09-20T22:10:03.740Z,6.40
2018-09-20T22:12:32.171Z,6.87
2018-09-20T22:15:00.500Z,6.00
2018-09-20T22:17:28.898Z,6.60
2018-09-20T22:19:57.192Z,6.10
2018-09-20T22:22:25.553Z,7.97
2018-09-20T22:24:53.958Z,6.17
2018-09-20T22:27:22.348Z,6.60
2018-09-20T22:29:50.865Z,7.30
2018-09-20T22:32:19.316Z,6.27
2018-09-20T22:34:47.731Z,6.67
2018-09-20T22:37:16.127Z,6.97
2018-09-20T22:39:44.636Z,6.27
2018-09-20T22:42:13.043Z,6.83
2018-09-20T22:44:41.381Z,6.13
2018-09-20T22:47:09.703Z,6.53
2018-09-20T22:49:38.053Z,6.90
2018-09-20T22:52:06.435Z,6.73
2018-09-20T22:54:34.801Z,6.50
2018-09-20T22:57:03.217Z,6.87
2018-09-20T22:59:31.701Z,6.90
2018-09-20T23:02:00.103Z,6.83
2018-09-20T23:04:28.491Z,6.13
2018-09-20T23:06:56.822Z,6.37
2018-09-20T23:09:25.375Z,5.93
2018-09-20T23:11:53.744Z,6.30
2018-09-20T23:14:22.313Z,6.87
2018-09-20T23:16:50.658Z,6.37
2018-09-20T23:19:18.964Z,6.77
2018-09-20T23:21:47.289Z,6.80
2018-09-20T23:24:15.649Z,6.20
2018-09-20T23:26:44.018Z,6.93
2018-09-20T23:29:12.423Z,6.73
2018-09-20T23:31:40.876Z,6.70
2018-09-20T23:34:09.189Z,7.17
2018-09-20T23:36:37.518Z,6.80
2018-09-20T23:39:07.938Z,7.40
2018-09-20T23:41:36.347Z,7.27
2018-09-20T23:44:04.820Z,6.67
2018-09-20T23:46:33.149Z,6.80
2018-09-20T23:49:01.494Z,7.80
2018-09-20T23:51:29.899Z,6.63
2018-09-20T23:53:58.268Z,6.60
2018-09-20T23:56:26.613Z,7.13
2018-09-20T23:58:54.939Z,6.17
